Time;durP1;ratioP1;P1;durP2;ratioP2;P2;SDS_P1;SDS_P2;PMS_P1;PMS_P2;Temp;Humidity;BMP_temperature;BMP_pressure;BME280_temperature;BME280_humidity;BME280_pressure;Samples;Min_cycle;Max_cycle;Signal;HPM_P1;HPM_P2
2022/01/21 00:01:24;;;;;;;8.88;7.97;;;15.90;61.10;;;;;;4948029;28;20090;-15
2022/01/21 00:03:50;;;;;;;9.27;7.85;;;15.90;61.10;;;;;;4956952;28;20083;-20
2022/01/21 00:06:16;;;;;;;9.60;7.60;;;15.90;61.10;;;;;;4957244;28;20054;-15
2022/01/21 00:08:42;;;;;;;9.52;8.00;;;15.90;61.20;;;;;;4946745;28;20047;-16
2022/01/21 00:11:09;;;;;;;8.55;7.65;;;15.90;61.20;;;;;;4952948;28;20042;-16
2022/01/21 00:13:36;;;;;;;7.70;6.90;;;15.90;62.00;;;;;;4949134;28;20047;-15
2022/01/21 00:16:05;;;;;;;8.48;7.57;;;15.90;61.20;;;;;;4957270;28;20039;-14
2022/01/21 00:18:36;;;;;;;7.38;6.68;;;15.90;61.10;;;;;;4956566;28;20043;-16
2022/01/21 00:31:59;;;;;;;7.00;6.30;;;15.90;61.10;;;;;;4937501;28;20371;-14
2022/01/21 00:34:24;;;;;;;6.97;6.28;;;15.90;61.10;;;;;;4937862;28;20714;-16
2022/01/21 00:36:50;;;;;;;6.82;6.22;;;15.90;61.10;;;;;;4948832;28;20055;-16
2022/01/21 00:39:19;;;;;;;6.93;6.28;;;15.80;61.20;;;;;;4955602;28;20039;-17
2022/01/21 00:41:57;;;;;;;6.65;6.05;;;15.80;61.10;;;;;;4954248;28;20119;-16
2022/01/21 00:44:22;;;;;;;7.18;6.47;;;15.80;61.10;;;;;;4957210;28;20054;-14
2022/01/21 00:46:49;;;;;;;7.22;6.40;;;15.80;61.20;;;;;;4956198;28;20047;-14
2022/01/21 00:49:15;;;;;;;7.05;6.35;;;15.80;61.20;;;;;;4940372;28;20047;-16
2022/01/21 00:51:40;;;;;;;7.55;6.28;;;15.80;61.30;;;;;;4937073;28;20185;-16
2022/01/21 00:54:06;;;;;;;6.43;5.93;;;15.70;61.30;;;;;;4951734;28;20720;-14
2022/01/21 00:56:31;;;;;;;6.30;5.63;;;15.70;61.40;;;;;;4956086;28;21131;-14
2022/01/21 00:58:57;;;;;;;6.60;5.75;;;15.70;61.40;;;;;;4941196;28;20107;-14
2022/01/21 01:01:23;;;;;;;6.28;5.50;;;15.70;61.40;;;;;;4940068;28;20043;-15
2022/01/21 01:03:48;;;;;;;7.15;6.22;;;15.70;61.40;;;;;;4949319;28;20545;-16
2022/01/21 01:06:14;;;;;;;6.43;5.88;;;15.70;61.30;;;;;;4937395;28;20051;-15
2022/01/21 01:08:40;;;;;;;5.88;5.28;;;15.70;61.40;;;;;;4936907;28;20048;-14
2022/01/21 01:21:47;;;;;;;6.18;5.53;;;15.70;61.40;;;;;;4936875;28;20051;-14
2022/01/21 01:29:43;;;;;;;6.03;5.53;;;15.70;61.20;;;;;;4937285;28;20075;-14
2022/01/21 01:32:08;;;;;;;6.03;5.53;;;15.70;61.10;;;;;;4940086;28;20134;-16
2022/01/21 01:34:34;;;;;;;5.82;5.30;;;15.70;61.20;;;;;;4955419;28;20062;-17
2022/01/21 01:37:05;;;;;;;5.20;4.80;;;15.60;61.20;;;;;;4949780;28;20056;-17
2022/01/21 01:39:41;;;;;;;5.28;4.85;;;15.60;61.40;;;;;;4937336;28;20099;-16
2022/01/21 01:50:02;;;;;;;4.68;4.28;;;15.70;61.00;;;;;;4938317;28;20051;-14
2022/01/21 01:52:28;;;;;;;4.60;4.30;;;15.70;61.10;;;;;;4947794;28;20157;-16
2022/01/21 01:54:54;;;;;;;4.60;4.20;;;15.60;61.10;;;;;;4957333;28;20504;-15
2022/01/21 01:57:21;;;;;;;5.43;4.93;;;15.60;61.00;;;;;;4947643;28;20051;-14
2022/01/21 01:59:46;;;;;;;4.38;4.03;;;15.60;61.00;;;;;;4940210;28;20043;-15
2022/01/21 02:02:14;;;;;;;5.00;4.60;;;15.60;61.00;;;;;;4947543;28;20054;-17
2022/01/21 02:04:41;;;;;;;4.55;4.18;;;15.60;60.90;;;;;;4939666;28;20417;-17
2022/01/21 02:07:06;;;;;;;4.63;4.32;;;15.60;60.90;;;;;;4940696;28;20055;-16
2022/01/21 02:09:32;;;;;;;4.43;4.03;;;15.70;60.90;;;;;;4940225;28;20051;-16
2022/01/21 02:11:58;;;;;;;4.30;3.90;;;15.60;61.00;;;;;;4958618;28;20138;-16
2022/01/21 02:14:29;;;;;;;4.60;4.20;;;15.60;60.90;;;;;;4951320;28;20051;-14
2022/01/21 02:22:11;;;;;;;4.00;3.70;;;15.60;61.10;;;;;;4940345;28;20102;-16
2022/01/21 02:25:00;;;;;;;4.28;3.97;;;15.60;61.10;;;;;;4939558;28;20051;-16
2022/01/21 02:27:23;;;;;;;4.22;3.92;;;15.60;61.00;;;;;;4946240;28;20047;-16
2022/01/21 02:29:52;;;;;;;4.28;3.75;;;15.50;61.00;;;;;;4958793;28;20413;-15
2022/01/21 02:32:18;;;;;;;3.55;3.25;;;15.60;60.90;;;;;;4958962;28;20082;-14
2022/01/21 02:34:43;;;;;;;3.75;3.55;;;15.60;61.00;;;;;;4958369;28;20047;-14
2022/01/21 02:37:10;;;;;;;3.58;3.28;;;15.50;60.90;;;;;;4958966;28;20055;-16
2022/01/21 02:39:36;;;;;;;3.70;3.50;;;15.60;60.90;;;;;;4958608;28;20094;-17
2022/01/21 02:42:02;;;;;;;3.60;3.30;;;15.60;60.90;;;;;;4958439;28;20192;-17
2022/01/21 02:44:27;;;;;;;3.50;3.30;;;15.60;60.80;;;;;;4952998;28;20039;-16
2022/01/21 02:46:57;;;;;;;3.30;3.10;;;15.60;61.00;;;;;;4953563;28;20048;-18
2022/01/21 02:49:23;;;;;;;4.18;3.53;;;15.50;60.90;;;;;;4939527;28;20046;-14
2022/01/21 02:51:50;;;;;;;3.22;3.03;;;15.60;60.90;;;;;;4946479;28;20047;-16
2022/01/21 02:54:15;;;;;;;3.10;2.90;;;15.60;61.00;;;;;;4958155;28;20151;-15
2022/01/21 02:56:41;;;;;;;3.50;3.20;;;15.50;60.90;;;;;;4958111;28;20122;-15
2022/01/21 02:59:08;;;;;;;3.45;3.15;;;15.50;60.90;;;;;;4958628;28;20050;-15
2022/01/21 03:01:35;;;;;;;4.13;3.72;;;15.50;60.90;;;;;;4955534;28;20039;-15
2022/01/21 03:04:02;;;;;;;3.10;2.90;;;15.50;60.90;;;;;;4938993;28;20051;-16
2022/01/21 03:06:28;;;;;;;3.28;2.97;;;15.50;61.00;;;;;;4939290;28;20048;-16
2022/01/21 03:08:57;;;;;;;3.40;3.20;;;15.50;61.10;;;;;;4938846;28;20044;-17
2022/01/21 03:11:23;;;;;;;3.28;3.08;;;15.40;61.10;;;;;;4954160;28;20397;-15
2022/01/21 03:13:49;;;;;;;3.67;3.38;;;15.40;61.10;;;;;;4938994;28;20485;-16
2022/01/21 03:16:14;;;;;;;3.13;2.92;;;15.50;61.00;;;;;;4939048;28;20051;-14
2022/01/21 03:18:40;;;;;;;3.38;3.17;;;15.40;61.00;;;;;;4938653;28;20047;-15
2022/01/21 03:21:07;;;;;;;3.55;3.28;;;15.40;61.10;;;;;;4939548;28;20056;-14
2022/01/21 03:23:34;;;;;;;3.08;2.88;;;15.40;61.00;;;;;;4939794;28;20060;-14
2022/01/21 03:26:00;;;;;;;3.25;3.05;;;15.40;61.10;;;;;;4938211;28;20168;-14
2022/01/21 03:28:25;;;;;;;3.30;3.00;;;15.40;61.00;;;;;;4939599;28;20083;-16
2022/01/21 03:30:55;;;;;;;3.03;2.83;;;15.40;61.10;;;;;;4938655;28;20332;-16
2022/01/21 03:33:21;;;;;;;3.47;2.72;;;15.40;61.10;;;;;;4953849;28;20067;-14
2022/01/21 03:35:47;;;;;;;3.30;3.10;;;15.40;61.20;;;;;;4937949;28;20058;-14
2022/01/21 03:38:12;;;;;;;3.15;2.95;;;15.40;61.20;;;;;;4949610;28;20492;-15
2022/01/21 03:40:38;;;;;;;2.85;2.65;;;15.40;61.10;;;;;;4957112;28;20071;-17
2022/01/21 03:43:03;;;;;;;3.17;2.88;;;15.40;61.00;;;;;;4956220;28;20067;-17
2022/01/21 03:45:29;;;;;;;2.85;2.65;;;15.40;61.10;;;;;;4957651;28;20075;-15
2022/01/21 03:47:55;;;;;;;2.95;2.65;;;15.30;61.30;;;;;;4948117;28;20048;-16
2022/01/21 03:52:49;;;;;;;3.10;2.90;;;15.30;61.20;;;;;;4942253;28;20050;-15
2022/01/21 03:55:14;;;;;;;2.67;2.53;;;15.30;61.30;;;;;;4957477;28;20122;-17
2022/01/21 03:57:40;;;;;;;2.50;2.40;;;15.30;61.10;;;;;;4941790;28;20055;-16
2022/01/21 04:00:07;;;;;;;3.53;3.22;;;15.30;61.20;;;;;;4938039;28;20078;-14
2022/01/21 04:02:33;;;;;;;3.00;2.80;;;15.30;61.40;;;;;;4950398;28;20047;-14
2022/01/21 04:04:58;;;;;;;2.88;2.67;;;15.30;61.20;;;;;;4956896;28;20060;-14
2022/01/21 04:07:24;;;;;;;2.85;2.65;;;15.30;61.20;;;;;;4951160;28;20587;-14
2022/01/21 04:09:49;;;;;;;3.40;3.10;;;15.30;61.30;;;;;;4951885;28;20106;-16
2022/01/21 04:12:15;;;;;;;3.10;2.85;;;15.30;61.20;;;;;;4944461;28;20055;-14
2022/01/21 04:14:42;;;;;;;2.80;2.70;;;15.30;61.30;;;;;;4938395;28;20055;-14
2022/01/21 04:17:07;;;;;;;3.03;2.83;;;15.30;61.10;;;;;;4937789;28;20067;-15
2022/01/21 04:19:33;;;;;;;2.72;2.53;;;15.30;61.20;;;;;;4938061;28;20115;-14
2022/01/21 04:21:59;;;;;;;2.40;2.20;;;15.30;61.10;;;;;;4937619;28;20044;-14
2022/01/21 04:24:24;;;;;;;2.60;2.40;;;15.30;61.20;;;;;;4938518;28;20052;-16
2022/01/21 04:26:50;;;;;;;2.90;2.70;;;15.30;61.00;;;;;;4937119;28;20108;-16
2022/01/21 04:29:16;;;;;;;2.80;2.60;;;15.30;61.10;;;;;;4938239;28;20047;-14
2022/01/21 04:31:41;;;;;;;2.42;2.30;;;15.30;61.20;;;;;;4939954;28;20047;-15
2022/01/21 04:34:07;;;;;;;2.53;2.33;;;15.20;61.20;;;;;;4956443;28;20051;-17
2022/01/21 04:36:34;;;;;;;2.30;2.13;;;15.30;61.30;;;;;;4956051;28;20078;-17
2022/01/21 04:39:01;;;;;;;2.25;2.15;;;15.30;61.20;;;;;;4956548;28;20063;-15
2022/01/21 04:47:18;;;;;;;2.40;2.20;;;15.30;61.10;;;;;;4937050;28;20043;-15
2022/01/21 04:49:45;;;;;;;1.88;1.77;;;15.30;61.10;;;;;;4951303;28;20050;-16
2022/01/21 04:52:11;;;;;;;2.50;2.20;;;15.30;61.00;;;;;;4941564;28;20431;-16
2022/01/21 04:54:36;;;;;;;2.22;2.10;;;15.30;61.00;;;;;;4955978;28;20508;-16
2022/01/21 04:57:03;;;;;;;2.30;2.20;;;15.30;60.90;;;;;;4955923;28;20154;-16
2022/01/21 04:59:28;;;;;;;2.55;2.35;;;15.30;60.90;;;;;;4956421;28;20105;-16
2022/01/21 05:01:54;;;;;;;2.20;2.10;;;15.30;61.00;;;;;;4943921;28;20043;-16
2022/01/21 05:04:20;;;;;;;1.67;1.58;;;15.30;60.90;;;;;;4956909;28;20054;-16
2022/01/21 05:06:47;;;;;;;1.80;1.70;;;15.30;60.90;;;;;;4952436;28;20082;-17
2022/01/21 05:09:16;;;;;;;1.98;1.88;;;15.20;61.00;;;;;;4937851;28;20069;-15
2022/01/21 05:11:42;;;;;;;2.03;1.92;;;15.20;61.00;;;;;;4937640;28;20456;-17
2022/01/21 05:14:17;;;;;;;2.40;2.25;;;15.20;61.00;;;;;;4937482;28;20074;-16
2022/01/21 05:16:48;;;;;;;2.47;2.38;;;15.20;60.90;;;;;;4937167;28;20052;-16
2022/01/21 05:19:15;;;;;;;1.90;1.80;;;15.20;60.90;;;;;;4937333;28;20058;-15
2022/01/21 05:21:42;;;;;;;2.00;1.90;;;15.20;60.90;;;;;;4937543;28;20604;-15
2022/01/21 05:24:08;;;;;;;2.10;2.00;;;15.20;60.90;;;;;;4937332;28;20048;-15
2022/01/21 05:26:38;;;;;;;1.80;1.70;;;15.20;60.90;;;;;;4955713;28;20047;-14
2022/01/21 05:29:04;;;;;;;2.08;1.98;;;15.20;61.00;;;;;;4953217;28;20050;-15
2022/01/21 05:31:30;;;;;;;2.00;1.90;;;15.20;61.00;;;;;;4960554;28;20448;-16
2022/01/21 05:33:56;;;;;;;2.20;2.10;;;15.10;61.10;;;;;;4959898;28;20508;-16
2022/01/21 05:36:21;;;;;;;2.40;2.20;;;15.20;60.90;;;;;;4955366;28;20047;-16
2022/01/21 05:38:47;;;;;;;2.42;2.28;;;15.20;60.90;;;;;;4950935;28;20046;-18
2022/01/21 05:41:13;;;;;;;1.77;1.67;;;15.20;61.00;;;;;;4959057;28;20839;-16
2022/01/21 05:43:45;;;;;;;2.30;2.10;;;15.20;60.90;;;;;;4945041;28;20039;-16
2022/01/21 05:46:29;;;;;;;2.08;1.98;;;15.20;60.90;;;;;;4940556;28;20071;-16
2022/01/21 05:48:55;;;;;;;1.67;1.58;;;15.10;60.90;;;;;;4940126;28;20040;-16
2022/01/21 05:51:20;;;;;;;1.67;1.58;;;15.20;60.90;;;;;;4941005;28;20054;-16
2022/01/21 05:53:46;;;;;;;1.58;1.48;;;15.10;61.00;;;;;;4953254;28;20054;-15
2022/01/21 05:56:12;;;;;;;1.80;1.70;;;15.10;60.90;;;;;;4959203;28;20082;-17
2022/01/21 05:58:38;;;;;;;1.90;1.80;;;15.10;61.00;;;;;;4960068;28;20082;-16
2022/01/21 06:01:04;;;;;;;2.20;2.00;;;15.10;61.00;;;;;;4952695;28;20040;-15
2022/01/21 06:03:31;;;;;;;1.80;1.70;;;15.10;61.10;;;;;;4959931;28;20047;-16
2022/01/21 06:05:57;;;;;;;1.70;1.60;;;15.10;61.00;;;;;;4956019;28;20078;-16
2022/01/21 06:08:22;;;;;;;2.42;1.60;;;15.10;61.00;;;;;;4947587;28;20051;-16
2022/01/21 06:10:48;;;;;;;2.00;1.90;;;15.10;60.90;;;;;;4959536;28;20067;-14
2022/01/21 06:13:18;;;;;;;1.58;1.48;;;15.10;60.80;;;;;;4959110;28;20402;-14
2022/01/21 06:15:44;;;;;;;1.50;1.35;;;15.10;60.90;;;;;;4954014;28;20043;-16
2022/01/21 06:18:10;;;;;;;2.20;2.00;;;15.10;60.90;;;;;;4957642;28;20396;-15
2022/01/21 06:20:35;;;;;;;1.75;1.65;;;15.10;60.90;;;;;;4946059;28;20528;-15
2022/01/21 06:23:01;;;;;;;1.60;1.50;;;15.10;61.00;;;;;;4939811;28;20040;-16
2022/01/21 06:25:27;;;;;;;1.55;1.45;;;15.20;60.90;;;;;;4940113;28;20416;-16
2022/01/21 06:27:52;;;;;;;1.70;1.50;;;15.10;60.80;;;;;;4939643;28;20051;-15
2022/01/21 06:30:18;;;;;;;1.98;1.67;;;15.10;61.00;;;;;;4940255;28;20047;-16
2022/01/21 06:32:43;;;;;;;1.85;1.75;;;15.10;61.00;;;;;;4940349;28;20075;-17
2022/01/21 06:35:10;;;;;;;1.40;1.30;;;15.10;60.90;;;;;;4939030;28;20047;-15
2022/01/21 06:37:36;;;;;;;1.73;1.63;;;15.10;60.80;;;;;;4940781;28;20135;-14
2022/01/21 06:40:02;;;;;;;1.40;1.30;;;15.10;60.80;;;;;;4950171;28;20138;-16
2022/01/21 06:42:29;;;;;;;1.33;1.23;;;15.10;60.70;;;;;;4939753;28;20047;-16
2022/01/21 06:44:55;;;;;;;1.52;1.42;;;15.10;60.90;;;;;;4939457;28;20055;-15
2022/01/21 06:47:21;;;;;;;1.65;1.40;;;15.10;60.80;;;;;;4939811;28;20047;-14
2022/01/21 06:49:46;;;;;;;1.50;1.40;;;15.10;60.90;;;;;;4939700;28;20050;-16
2022/01/21 06:52:12;;;;;;;1.77;1.67;;;15.10;60.90;;;;;;4939662;28;20056;-16
2022/01/21 06:54:38;;;;;;;1.60;1.50;;;15.00;60.90;;;;;;4957837;28;21330;-15
2022/01/21 06:57:04;;;;;;;1.38;1.27;;;15.10;61.00;;;;;;4958191;28;20515;-17
2022/01/21 06:59:29;;;;;;;1.67;1.55;;;15.00;60.90;;;;;;4958895;28;20047;-16
2022/01/21 07:01:55;;;;;;;1.30;1.20;;;15.00;61.00;;;;;;4958366;28;20408;-15
2022/01/21 07:04:21;;;;;;;1.50;1.40;;;15.00;60.90;;;;;;4950003;28;20492;-18
2022/01/21 07:06:46;;;;;;;1.40;1.30;;;15.00;61.10;;;;;;4939565;28;20047;-16
2022/01/21 07:09:12;;;;;;;1.42;1.33;;;15.00;61.10;;;;;;4954252;28;20084;-14
2022/01/21 07:11:38;;;;;;;1.23;1.17;;;15.00;61.00;;;;;;4946392;28;20047;-14
2022/01/21 07:14:03;;;;;;;1.35;1.25;;;14.90;61.00;;;;;;4938777;28;20050;-16
2022/01/21 07:16:29;;;;;;;1.10;1.10;;;15.00;61.00;;;;;;4946072;28;20051;-16
2022/01/21 07:18:55;;;;;;;1.50;1.40;;;15.00;61.10;;;;;;4946329;28;20051;-16
2022/01/21 07:21:20;;;;;;;1.10;1.10;;;15.00;61.00;;;;;;4939654;28;20043;-14
2022/01/21 07:23:46;;;;;;;1.40;1.30;;;15.00;61.10;;;;;;4939410;28;20040;-16
2022/01/21 07:26:13;;;;;;;1.45;1.35;;;15.00;61.10;;;;;;4955453;28;20089;-15
2022/01/21 07:28:39;;;;;;;1.50;1.40;;;14.90;61.00;;;;;;4958201;28;20119;-16
2022/01/21 07:31:05;;;;;;;1.55;1.45;;;15.00;61.00;;;;;;4956063;28;20059;-15
2022/01/21 07:33:30;;;;;;;1.35;1.25;;;15.00;61.10;;;;;;4957953;28;20484;-14
2022/01/21 07:35:56;;;;;;;1.45;1.40;;;15.00;61.00;;;;;;4953790;28;20048;-17
2022/01/21 07:38:22;;;;;;;1.40;1.30;;;14.90;60.90;;;;;;4939210;28;20047;-17
2022/01/21 07:40:47;;;;;;;1.45;1.35;;;15.00;61.00;;;;;;4938867;28;20099;-15
2022/01/21 07:43:13;;;;;;;1.13;1.02;;;15.00;61.20;;;;;;4938678;28;20051;-16
2022/01/21 07:45:38;;;;;;;1.48;1.38;;;14.90;61.10;;;;;;4940306;28;20048;-14
2022/01/21 07:48:04;;;;;;;1.52;1.08;;;15.00;61.00;;;;;;4956852;28;20071;-16
2022/01/21 07:50:31;;;;;;;1.50;1.40;;;15.00;61.00;;;;;;4957656;28;20071;-16
2022/01/21 07:52:56;;;;;;;1.30;1.20;;;15.00;60.90;;;;;;4956757;28;20035;-16
2022/01/21 07:55:22;;;;;;;1.20;1.20;;;15.00;60.90;;;;;;4956586;28;20476;-17
2022/01/21 07:57:47;;;;;;;1.50;1.40;;;15.00;60.80;;;;;;4954381;28;20036;-15
2022/01/21 08:00:13;;;;;;;1.30;1.20;;;15.00;60.90;;;;;;4938363;28;20054;-16
2022/01/21 08:02:39;;;;;;;2.38;1.27;;;14.90;60.70;;;;;;4951459;28;20051;-15
2022/01/21 08:05:05;;;;;;;1.73;1.48;;;15.00;60.70;;;;;;4938844;28;20051;-14
2022/01/21 08:07:31;;;;;;;1.70;1.60;;;14.90;60.60;;;;;;4948196;28;20047;-14
2022/01/21 08:09:57;;;;;;;1.85;1.75;;;15.00;60.50;;;;;;4957182;28;20095;-18
2022/01/21 08:12:22;;;;;;;2.70;2.50;;;15.00;60.60;;;;;;4957790;28;20047;-16
2022/01/21 08:14:48;;;;;;;3.95;2.92;;;15.00;60.90;;;;;;4941358;28;20052;-14
2022/01/21 08:17:13;;;;;;;3.80;3.35;;;15.00;60.60;;;;;;4938422;28;20067;-16
2022/01/21 08:19:39;;;;;;;3.70;3.17;;;15.00;60.30;;;;;;4948893;28;20062;-14
2022/01/21 08:22:05;;;;;;;4.85;3.90;;;15.00;60.20;;;;;;4955288;28;20043;-17
2022/01/21 08:24:30;;;;;;;6.03;5.30;;;14.90;60.00;;;;;;4957883;28;20054;-16
2022/01/21 08:26:56;;;;;;;6.85;5.88;;;14.90;60.40;;;;;;4957552;28;20051;-17
2022/01/21 08:29:22;;;;;;;10.63;7.68;;;15.00;60.40;;;;;;4956043;28;20106;-14
2022/01/21 08:31:47;;;;;;;11.15;8.32;;;15.00;60.60;;;;;;4957481;28;20125;-15
2022/01/21 08:34:13;;;;;;;11.68;8.40;;;15.00;60.70;;;;;;4956700;28;20050;-15
2022/01/21 08:36:39;;;;;;;12.10;9.38;;;15.00;60.80;;;;;;4944967;28;20138;-17
2022/01/21 08:39:05;;;;;;;12.52;8.85;;;15.00;60.80;;;;;;4937840;28;20075;-14
2022/01/21 08:41:31;;;;;;;9.90;8.13;;;15.00;60.80;;;;;;4938190;28;20624;-17
2022/01/21 08:43:57;;;;;;;10.07;8.63;;;15.00;60.80;;;;;;4938831;28;20263;-14
2022/01/21 08:46:22;;;;;;;9.95;8.73;;;15.00;60.90;;;;;;4951575;28;20038;-14
2022/01/21 08:48:48;;;;;;;9.77;8.73;;;15.00;60.90;;;;;;4957267;28;20035;-16
2022/01/21 08:51:20;;;;;;;11.85;9.43;;;15.00;60.90;;;;;;4950998;28;20090;-16
2022/01/21 08:53:46;;;;;;;9.88;8.50;;;15.00;61.10;;;;;;4949974;28;20081;-16
2022/01/21 08:56:13;;;;;;;9.48;7.93;;;15.00;61.10;;;;;;4949689;28;20039;-16
2022/01/21 08:58:39;;;;;;;9.38;8.45;;;15.00;61.00;;;;;;4956483;28;20190;-16
2022/01/21 09:01:05;;;;;;;10.55;8.43;;;15.00;60.90;;;;;;4947108;28;20044;-15
2022/01/21 09:03:30;;;;;;;10.27;8.23;;;15.00;60.90;;;;;;4947964;28;20057;-14
2022/01/21 09:05:56;;;;;;;9.85;8.40;;;15.00;60.90;;;;;;4954045;28;20051;-15
2022/01/21 09:08:23;;;;;;;14.13;10.07;;;15.00;60.90;;;;;;4947888;28;20083;-15
2022/01/21 09:10:52;;;;;;;15.88;10.18;;;15.00;61.00;;;;;;4937950;28;20048;-15
2022/01/21 09:13:19;;;;;;;11.68;9.35;;;15.00;61.10;;;;;;4942126;28;20043;-17
2022/01/21 09:15:45;;;;;;;16.48;9.63;;;15.00;61.10;;;;;;4956648;28;20047;-16
2022/01/21 09:18:10;;;;;;;14.10;9.57;;;15.00;61.10;;;;;;4956681;28;20102;-15
2022/01/21 09:20:37;;;;;;;11.93;9.07;;;15.00;61.00;;;;;;4956790;28;20475;-14
2022/01/21 09:23:03;;;;;;;13.57;8.80;;;15.00;61.20;;;;;;4956239;28;20086;-15
2022/01/21 09:25:29;;;;;;;11.10;8.65;;;15.10;61.10;;;;;;4952082;28;20054;-16
2022/01/21 09:27:54;;;;;;;9.82;8.35;;;15.10;60.90;;;;;;4956658;28;20043;-15
2022/01/21 09:30:20;;;;;;;9.05;8.15;;;15.10;60.90;;;;;;4956446;28;20059;-14
2022/01/21 09:32:46;;;;;;;11.50;9.15;;;15.10;61.00;;;;;;4954018;28;20071;-16
2022/01/21 09:35:11;;;;;;;10.88;8.60;;;15.10;61.10;;;;;;4955383;28;20051;-16
2022/01/21 09:37:37;;;;;;;15.40;12.25;;;15.30;60.80;;;;;;4952704;28;20048;-16
2022/01/21 09:40:04;;;;;;;17.67;12.60;;;15.30;60.70;;;;;;4966319;28;20134;-17
2022/01/21 09:42:32;;;;;;;17.15;12.77;;;15.30;60.60;;;;;;4956296;28;20048;-14
2022/01/21 09:44:58;;;;;;;16.70;12.50;;;15.20;60.60;;;;;;4956942;28;20052;-14
2022/01/21 09:47:23;;;;;;;14.18;11.98;;;15.30;60.60;;;;;;4953906;28;20054;-13
2022/01/21 09:49:49;;;;;;;17.65;12.82;;;15.20;60.90;;;;;;4954405;28;20055;-14
2022/01/21 09:52:17;;;;;;;18.70;14.10;;;15.20;60.80;;;;;;4946648;28;20050;-14
2022/01/21 09:54:45;;;;;;;20.08;14.27;;;15.20;60.90;;;;;;4955858;28;20566;-17
2022/01/21 09:57:13;;;;;;;20.30;14.50;;;15.20;60.90;;;;;;4948920;28;20051;-16
2022/01/21 09:59:39;;;;;;;20.88;14.52;;;15.20;60.90;;;;;;4951749;28;20435;-15
2022/01/21 10:02:06;;;;;;;19.55;14.23;;;15.20;61.20;;;;;;4963050;28;20504;-15
2022/01/21 10:04:49;;;;;;;19.17;14.20;;;15.20;61.00;;;;;;4947405;28;20047;-15
2022/01/21 10:07:16;;;;;;;19.77;14.00;;;15.30;61.10;;;;;;4944478;28;20138;-15
2022/01/21 10:09:43;;;;;;;17.63;13.38;;;15.30;60.90;;;;;;4949073;28;20043;-17
2022/01/21 10:12:09;;;;;;;19.20;13.05;;;15.30;60.90;;;;;;4956918;28;20054;-14
2022/01/21 10:14:35;;;;;;;16.77;13.35;;;15.20;60.90;;;;;;4959702;28;20120;-14
2022/01/21 10:17:01;;;;;;;15.18;12.70;;;15.30;60.90;;;;;;4959271;28;20063;-16
2022/01/21 10:19:37;;;;;;;20.42;13.10;;;15.30;60.90;;;;;;4957837;28;20501;-16
2022/01/21 10:22:12;;;;;;;16.15;12.85;;;15.30;60.90;;;;;;4954309;28;20083;-16
2022/01/21 10:24:59;;;;;;;15.18;12.23;;;15.30;60.90;;;;;;4955434;28;20069;-15
2022/01/21 10:27:26;;;;;;;12.95;11.52;;;15.40;60.80;;;;;;4955603;28;20055;-16
2022/01/21 10:29:52;;;;;;;16.38;12.85;;;15.40;61.10;;;;;;4959774;28;20047;-14
2022/01/21 10:32:30;;;;;;;17.52;12.27;;;15.50;60.80;;;;;;4958714;28;20604;-14
2022/01/21 10:34:56;;;;;;;16.80;13.48;;;15.50;60.70;;;;;;4957604;28;20420;-15
2022/01/21 10:37:35;;;;;;;18.05;12.40;;;15.50;61.10;;;;;;4951098;28;20111;-16
2022/01/21 10:40:05;;;;;;;15.98;12.50;;;15.60;60.90;;;;;;4958994;28;20067;-17
2022/01/21 10:42:30;;;;;;;16.23;12.35;;;15.60;61.00;;;;;;4958809;28;20054;-16
2022/01/21 10:44:57;;;;;;;16.60;12.95;;;15.60;61.30;;;;;;4959489;28;20043;-16
2022/01/21 10:47:31;;;;;;;15.80;12.35;;;15.60;61.20;;;;;;4958977;28;20094;-16
2022/01/21 10:50:19;;;;;;;15.57;13.05;;;15.60;61.20;;;;;;4957217;28;20634;-14
2022/01/21 10:52:49;;;;;;;14.50;12.00;;;15.60;62.30;;;;;;4958896;28;20070;-15
2022/01/21 10:55:34;;;;;;;13.35;11.68;;;15.60;61.10;;;;;;4967196;28;20042;-13
2022/01/21 10:58:03;;;;;;;15.50;11.68;;;15.70;61.10;;;;;;4947143;28;20039;-16
2022/01/21 11:00:29;;;;;;;20.10;11.57;;;15.70;61.40;;;;;;4939527;28;20052;-16
2022/01/21 11:02:54;;;;;;;15.45;11.65;;;15.70;61.40;;;;;;4964125;28;20039;-16
2022/01/21 11:05:20;;;;;;;14.27;11.45;;;15.70;61.40;;;;;;4981176;28;20046;-17
2022/01/21 11:07:51;;;;;;;11.68;10.48;;;15.80;61.50;;;;;;4953365;28;20567;-15
2022/01/21 11:10:32;;;;;;;14.40;10.15;;;15.80;61.60;;;;;;4952367;28;20050;-16
2022/01/21 11:13:04;;;;;;;14.35;10.85;;;15.80;61.40;;;;;;4948553;28;20137;-16
2022/01/21 11:15:42;;;;;;;12.95;10.05;;;15.90;61.30;;;;;;4950445;28;20634;-14
2022/01/21 11:18:10;;;;;;;11.18;10.07;;;16.00;61.30;;;;;;4950935;28;20047;-15
2022/01/21 11:20:40;;;;;;;11.98;9.15;;;16.00;61.10;;;;;;4956644;28;20054;-17
2022/01/21 11:23:08;;;;;;;11.13;9.40;;;16.00;61.20;;;;;;4948729;28;20054;-15
2022/01/21 11:26:08;;;;;;;12.50;9.95;;;16.00;61.20;;;;;;4947167;28;20079;-18
2022/01/21 11:28:38;;;;;;;9.65;8.57;;;16.10;61.20;;;;;;4954100;28;20063;-18
2022/01/21 11:31:04;;;;;;;10.57;8.48;;;16.00;60.90;;;;;;4952142;28;20271;-14
2022/01/21 11:33:30;;;;;;;9.20;7.75;;;16.10;61.10;;;;;;4955586;28;20404;-14
2022/01/21 11:35:55;;;;;;;10.18;8.93;;;16.10;61.00;;;;;;4952582;28;20054;-17
2022/01/21 11:38:23;;;;;;;13.85;11.27;;;16.10;60.90;;;;;;4607312;28;10000149;-16
2022/01/21 11:40:50;;;;;;;16.35;12.98;;;16.10;60.80;;;;;;4954704;28;20137;-17
2022/01/21 11:43:16;;;;;;;17.75;14.73;;;16.10;60.80;;;;;;4954338;28;20039;-16
2022/01/21 11:50:44;;;;;;;21.73;16.98;;;16.20;60.70;;;;;;4969111;28;20145;-15
2022/01/21 11:53:09;;;;;;;22.38;16.63;;;16.20;60.70;;;;;;4941798;28;20146;-14
2022/01/21 11:55:36;;;;;;;19.77;15.73;;;16.20;60.70;;;;;;4954021;28;20142;-16
2022/01/21 11:58:18;;;;;;;21.00;16.40;;;16.20;60.60;;;;;;4954535;28;20058;-14
2022/01/21 12:00:47;;;;;;;19.73;15.15;;;16.30;60.50;;;;;;4953127;28;20603;-15
2022/01/21 12:03:13;;;;;;;19.27;16.23;;;16.30;60.40;;;;;;4951225;28;20060;-16
2022/01/21 12:05:39;;;;;;;19.65;14.98;;;16.30;60.50;;;;;;4953262;28;20047;-15
2022/01/21 12:08:05;;;;;;;18.80;14.98;;;16.30;60.40;;;;;;4954301;28;20616;-17
2022/01/21 12:10:32;;;;;;;19.73;14.82;;;16.30;60.40;;;;;;4952112;28;20122;-16
2022/01/21 12:13:17;;;;;;;20.92;15.75;;;16.30;60.40;;;;;;4954185;28;20047;-16
2022/01/21 12:16:18;;;;;;;18.33;14.60;;;16.30;60.40;;;;;;4952528;28;20047;-15
2022/01/21 12:19:11;;;;;;;18.70;14.30;;;16.30;60.80;;;;;;4953712;28;20075;-17
2022/01/21 12:21:40;;;;;;;16.45;13.23;;;16.30;60.30;;;;;;4952786;28;20043;-16
2022/01/21 12:24:08;;;;;;;16.55;13.32;;;16.30;60.60;;;;;;4953749;28;20077;-15
2022/01/21 12:26:34;;;;;;;18.60;13.63;;;16.30;60.50;;;;;;4952943;28;20051;-16
2022/01/21 12:28:59;;;;;;;16.40;12.75;;;16.30;60.70;;;;;;4947974;28;20050;-15
2022/01/21 12:31:53;;;;;;;13.93;11.55;;;16.30;60.50;;;;;;4953398;28;20082;-15
2022/01/21 12:34:18;;;;;;;16.98;12.23;;;16.30;60.50;;;;;;4946297;28;20039;-15
2022/01/21 12:36:49;;;;;;;14.55;12.05;;;16.30;60.70;;;;;;4953268;28;20054;-16
2022/01/21 12:39:38;;;;;;;13.45;12.02;;;16.30;60.70;;;;;;4940820;28;20043;-14
2022/01/21 12:42:23;;;;;;;15.18;11.63;;;16.30;60.30;;;;;;4950344;28;20051;-16
2022/01/21 12:45:07;;;;;;;14.88;10.85;;;16.30;60.80;;;;;;4945975;28;20047;-16
2022/01/21 12:47:46;;;;;;;13.52;11.35;;;16.30;60.10;;;;;;4952543;28;20058;-15
2022/01/21 12:50:23;;;;;;;15.00;11.13;;;16.30;60.30;;;;;;4950526;28;20046;-16
2022/01/21 12:52:52;;;;;;;11.05;9.85;;;16.40;60.00;;;;;;4955147;28;20043;-17
2022/01/21 12:58:10;;;;;;;13.05;10.52;;;16.40;59.80;;;;;;4957097;28;20066;-14
2022/01/21 13:00:37;;;;;;;12.05;10.05;;;16.30;59.70;;;;;;4951825;28;20052;-17
2022/01/21 13:03:08;;;;;;;13.43;10.40;;;16.30;60.50;;;;;;4949125;28;20138;-16
2022/01/21 13:05:40;;;;;;;13.88;10.40;;;16.40;60.60;;;;;;4949965;28;20055;-16
2022/01/21 13:08:18;;;;;;;15.45;9.40;;;16.40;60.60;;;;;;4950184;28;20051;-16
2022/01/21 13:10:43;;;;;;;13.70;9.90;;;16.40;60.60;;;;;;4954490;28;20043;-17
2022/01/21 13:15:47;;;;;;;11.25;10.05;;;16.50;61.30;;;;;;4945101;28;20047;-16
2022/01/21 13:18:16;;;;;;;13.30;9.27;;;16.40;61.10;;;;;;4951006;28;20109;-17
2022/01/21 13:20:46;;;;;;;11.13;9.55;;;16.40;60.90;;;;;;4952964;28;20522;-16
2022/01/21 13:23:13;;;;;;;15.32;10.95;;;16.40;60.90;;;;;;4954716;28;20055;-17
2022/01/21 13:25:39;;;;;;;12.93;9.43;;;16.30;61.00;;;;;;4956314;28;20039;-16
2022/01/21 13:28:05;;;;;;;10.40;9.32;;;16.30;60.90;;;;;;4954657;28;20054;-14
2022/01/21 13:30:36;;;;;;;11.15;8.90;;;16.30;60.90;;;;;;4955632;28;20444;-17
2022/01/21 13:33:07;;;;;;;8.85;7.95;;;16.30;61.10;;;;;;4953939;28;20169;-16
2022/01/21 13:35:33;;;;;;;10.82;8.07;;;16.30;62.20;;;;;;4955876;28;20479;-16
2022/01/21 13:38:12;;;;;;;10.02;8.85;;;16.30;61.50;;;;;;4956415;28;20134;-14
2022/01/21 13:40:42;;;;;;;8.85;7.90;;;16.30;61.70;;;;;;4945622;28;20051;-15
2022/01/21 13:43:17;;;;;;;11.13;8.57;;;16.30;61.80;;;;;;4951905;28;20070;-15